createdAt,value
2022-10-09T13:19:32.027Z,16.09
2022-10-09T13:22:07.995Z,16.01
2022-10-09T13:24:36.462Z,16.07
2022-10-09T13:27:05.578Z,15.99
2022-10-09T13:29:34.172Z,15.82
2022-10-09T13:32:03.567Z,15.77
2022-10-09T13:34:32.065Z,15.63
2022-10-09T13:37:00.607Z,15.59
2022-10-09T13:39:30.218Z,15.51
2022-10-09T13:41:59.885Z,15.46
2022-10-09T13:44:29.323Z,15.46
2022-10-09T13:46:57.853Z,15.44
2022-10-09T13:49:29.286Z,15.42
2022-10-09T13:51:57.869Z,15.41
2022-10-09T13:54:26.650Z,15.33
2022-10-09T13:56:55.615Z,15.35
2022-10-09T13:59:24.831Z,15.37
2022-10-09T14:01:54.582Z,15.29
2022-10-09T14:04:23.599Z,15.25
2022-10-09T14:06:53.576Z,15.24
2022-10-09T14:09:23.312Z,15.21
2022-10-09T14:11:51.994Z,15.25
2022-10-09T14:14:23.100Z,15.30
2022-10-09T14:16:51.925Z,15.29
2022-10-09T14:19:24.920Z,15.28
2022-10-09T14:21:58.582Z,15.29
2022-10-09T14:24:33.279Z,15.30
2022-10-09T14:27:08.604Z,15.39
2022-10-09T14:29:40.299Z,15.29
2022-10-09T14:32:08.962Z,15.34
2022-10-09T14:34:39.472Z,15.33
2022-10-09T14:37:29.672Z,15.24
2022-10-09T14:40:02.526Z,15.29
2022-10-09T14:42:31.173Z,15.29
2022-10-09T14:45:02.487Z,15.29
2022-10-09T14:47:31.169Z,15.28
2022-10-09T14:50:01.441Z,15.30
2022-10-09T14:52:30.812Z,15.32
2022-10-09T14:54:59.450Z,15.31
2022-10-09T14:57:35.844Z,15.34
2022-10-09T15:00:08.872Z,15.31
2022-10-09T15:02:38.437Z,15.23
2022-10-09T15:05:07.490Z,15.25
2022-10-09T15:07:36.369Z,15.33
2022-10-09T15:10:05.691Z,15.32
2022-10-09T15:12:43.226Z,15.31
2022-10-09T15:15:11.735Z,15.24
2022-10-09T15:17:40.790Z,15.19
2022-10-09T15:20:09.853Z,15.17
2022-10-09T15:22:38.799Z,15.19
2022-10-09T15:25:08.498Z,15.10
2022-10-09T15:27:36.983Z,15.08
2022-10-09T15:30:12.178Z,15.05
2022-10-09T15:32:44.706Z,15.05
2022-10-09T15:35:19.161Z,15.04
2022-10-09T15:37:55.767Z,14.95
2022-10-09T15:40:25.124Z,14.89
2022-10-09T15:42:54.049Z,14.91
2022-10-09T15:45:22.889Z,14.81
2022-10-09T15:48:00.183Z,14.76
2022-10-09T15:50:28.804Z,14.67
2022-10-09T15:53:11.838Z,14.64
2022-10-09T15:55:53.051Z,14.53
2022-10-09T15:58:21.812Z,14.48
2022-10-09T16:00:51.528Z,14.40
2022-10-09T16:03:21.310Z,14.34
2022-10-09T16:05:52.980Z,14.30
2022-10-09T16:08:31.615Z,14.28
2022-10-09T16:11:12.571Z,14.24
2022-10-09T16:13:48.226Z,14.25
2022-10-09T16:16:28.630Z,14.25
2022-10-09T16:18:58.481Z,14.28
2022-10-09T16:21:29.920Z,14.26
2022-10-09T16:24:02.215Z,14.24
2022-10-09T16:26:32.659Z,14.26
2022-10-09T16:29:02.288Z,14.25
2022-10-09T16:31:36.639Z,14.24
2022-10-09T16:34:08.156Z,14.26
2022-10-09T16:36:36.972Z,14.27
2022-10-09T16:39:06.526Z,14.25
2022-10-09T16:41:41.863Z,14.25
2022-10-09T16:44:15.471Z,14.23
2022-10-09T16:46:44.499Z,14.18
2022-10-09T16:49:21.360Z,14.20
2022-10-09T16:51:58.767Z,14.16
2022-10-09T16:54:32.606Z,14.09
2022-10-09T16:57:04.886Z,14.01
2022-10-09T16:59:47.371Z,13.99
2022-10-09T17:02:16.754Z,13.96
2022-10-09T17:04:46.529Z,13.87
2022-10-09T17:07:15.436Z,13.82
2022-10-09T17:09:45.674Z,13.76
2022-10-09T17:12:24.779Z,13.76
2022-10-09T17:15:02.165Z,13.72
2022-10-09T17:17:39.601Z,13.70
2022-10-09T17:20:09.300Z,13.64
2022-10-09T17:22:38.674Z,13.59
2022-10-09T17:25:16.451Z,13.60
2022-10-09T17:28:14.337Z,13.60
2022-10-09T17:30:50.921Z,13.55
2022-10-09T17:33:21.680Z,13.56
2022-10-09T17:36:25.404Z,13.54
2022-10-09T17:39:34.265Z,13.57
2022-10-09T17:42:28.077Z,13.56
2022-10-09T17:45:07.811Z,13.54
2022-10-09T17:47:42.309Z,13.55
2022-10-09T17:50:15.679Z,13.52
2022-10-09T17:52:49.595Z,13.51
2022-10-09T17:55:23.556Z,13.54
2022-10-09T17:57:55.041Z,13.52
2022-10-09T18:00:30.129Z,13.50
2022-10-09T18:02:58.851Z,13.47
2022-10-09T18:05:27.419Z,13.55
2022-10-09T18:07:56.864Z,13.52
2022-10-09T18:10:26.837Z,13.50
2022-10-09T18:12:58.479Z,13.49
2022-10-09T18:15:27.063Z,13.48
2022-10-09T18:17:58.888Z,13.45
2022-10-09T18:20:35.379Z,13.44
2022-10-09T18:23:22.701Z,13.44
2022-10-09T18:25:52.130Z,13.41
2022-10-09T18:28:21.075Z,13.42
2022-10-09T18:31:06.095Z,13.36
2022-10-09T18:33:39.793Z,13.31
2022-10-09T18:36:32.056Z,13.27
2022-10-09T18:39:10.021Z,13.24
2022-10-09T18:41:38.719Z,13.23
2022-10-09T18:44:15.494Z,13.23
2022-10-09T18:46:59.802Z,13.18
2022-10-09T18:49:34.932Z,13.09
2022-10-09T18:52:04.230Z,13.06
2022-10-09T18:54:33.158Z,13.06
2022-10-09T18:57:08.897Z,13.05
2022-10-09T18:59:39.017Z,13.02
2022-10-09T19:02:08.084Z,12.99
2022-10-09T19:04:37.875Z,12.95
2022-10-09T19:07:08.178Z,12.90
2022-10-09T19:09:41.481Z,12.88
2022-10-09T19:12:10.835Z,12.85
2022-10-09T19:14:39.516Z,12.80
2022-10-09T19:17:08.371Z,12.77
2022-10-09T19:19:40.744Z,12.70
2022-10-09T19:22:14.103Z,12.65
2022-10-09T19:24:49.549Z,12.60
2022-10-09T19:27:18.369Z,12.58
2022-10-09T19:29:46.990Z,12.55
2022-10-09T19:32:20.283Z,12.48
2022-10-09T19:34:50.257Z,12.43
2022-10-09T19:37:18.926Z,12.36
2022-10-09T19:39:50.083Z,12.27
2022-10-09T19:42:19.298Z,12.23
2022-10-09T19:44:47.982Z,12.19
2022-10-09T19:47:19.190Z,12.15
2022-10-09T19:49:52.066Z,12.13
2022-10-09T19:52:21.051Z,12.09
2022-10-09T19:54:49.683Z,12.07
2022-10-09T19:57:18.062Z,12.06
2022-10-09T19:59:48.110Z,12.03
2022-10-09T20:02:16.566Z,12.00
2022-10-09T20:04:48.706Z,11.95
2022-10-09T20:07:17.841Z,11.94
2022-10-09T20:09:46.317Z,11.92
2022-10-09T20:12:14.940Z,11.90
2022-10-09T20:14:43.584Z,11.87
2022-10-09T20:17:12.427Z,11.85
2022-10-09T20:19:44.867Z,11.82
2022-10-09T20:22:14.222Z,11.81
2022-10-09T20:24:42.820Z,11.82
2022-10-09T20:27:11.413Z,11.82
2022-10-09T20:29:39.955Z,11.78
2022-10-09T20:32:08.829Z,11.77
2022-10-09T20:34:37.338Z,11.78
2022-10-09T20:37:05.766Z,11.77
2022-10-09T20:39:34.378Z,11.76
2022-10-09T20:42:03.020Z,11.79
2022-10-09T20:44:31.505Z,11.76
2022-10-09T20:47:00.137Z,11.70
2022-10-09T20:49:29.934Z,11.68
2022-10-09T20:51:58.446Z,11.67
2022-10-09T20:54:27.314Z,11.71
2022-10-09T20:56:55.964Z,11.69
2022-10-09T20:59:24.525Z,11.66
2022-10-09T21:01:53.180Z,11.65
2022-10-09T21:04:21.646Z,11.60
2022-10-09T21:06:50.147Z,11.50
2022-10-09T21:09:18.625Z,11.45
2022-10-09T21:11:47.159Z,11.36
2022-10-09T21:14:15.585Z,11.27
2022-10-09T21:16:44.154Z,11.17
2022-10-09T21:19:12.639Z,11.08
2022-10-09T21:21:41.191Z,11.04
2022-10-09T21:24:09.777Z,10.98
2022-10-09T21:26:39.490Z,10.98
2022-10-09T21:29:07.954Z,10.96
2022-10-09T21:31:36.639Z,10.93
2022-10-09T21:34:05.261Z,10.88
2022-10-09T21:39:46.186Z,10.75
2022-10-09T21:42:14.849Z,10.68
2022-10-09T21:44:43.384Z,10.64
2022-10-09T21:47:21.223Z,10.60
2022-10-09T21:49:49.717Z,10.57
2022-10-09T21:52:18.873Z,10.54
2022-10-09T21:54:47.343Z,10.50
2022-10-09T21:57:15.885Z,10.46
2022-10-09T21:59:44.390Z,10.42
2022-10-09T22:02:12.909Z,10.42
2022-10-09T22:04:41.283Z,10.40
2022-10-09T22:07:09.788Z,10.35
2022-10-09T22:09:38.252Z,10.30
2022-10-09T22:12:06.684Z,10.25
2022-10-09T22:14:35.147Z,10.23
2022-10-09T22:17:03.577Z,10.17
2022-10-09T22:19:32.337Z,10.18
2022-10-09T22:22:00.784Z,10.17
2022-10-09T22:24:30.807Z,10.14
2022-10-09T22:26:59.648Z,10.12
2022-10-09T22:29:28.043Z,10.08
2022-10-09T22:31:56.576Z,10.02
2022-10-09T22:34:25.071Z,9.98
2022-10-09T22:36:53.472Z,9.95
2022-10-09T22:39:21.996Z,9.93
2022-10-09T22:41:50.456Z,9.91
2022-10-09T22:44:18.964Z,9.90
2022-10-09T22:46:50.102Z,9.83
2022-10-09T22:49:18.865Z,9.76
2022-10-09T22:51:47.334Z,9.68
2022-10-09T22:54:15.803Z,9.59
2022-10-09T22:56:46.047Z,9.54
2022-10-09T22:59:18.238Z,9.46
2022-10-09T23:01:57.578Z,9.46
2022-10-09T23:04:26.404Z,9.44
2022-10-09T23:06:59.879Z,9.40
2022-10-09T23:09:32.429Z,9.38
2022-10-09T23:12:00.844Z,9.35
2022-10-09T23:14:29.490Z,9.35
2022-10-09T23:16:58.008Z,9.36
2022-10-09T23:19:26.579Z,9.33
2022-10-09T23:21:55.156Z,9.36
2022-10-09T23:24:23.664Z,9.37
2022-10-09T23:26:52.424Z,9.33
2022-10-09T23:29:21.500Z,9.28
2022-10-09T23:31:53.461Z,9.27
2022-10-09T23:34:22.062Z,9.25
2022-10-09T23:36:50.708Z,9.21
2022-10-09T23:39:19.340Z,9.17
2022-10-09T23:41:47.703Z,9.14
2022-10-09T23:44:21.246Z,9.08
2022-10-09T23:46:50.655Z,9.06
2022-10-09T23:49:19.257Z,9.02
2022-10-09T23:51:47.977Z,9.01
2022-10-09T23:54:16.504Z,8.98
2022-10-09T23:56:45.077Z,8.94
2022-10-09T23:59:13.692Z,8.90
